createdAt,value
2023-10-29T04:33:54.699Z,2.25
2023-10-29T04:36:23.316Z,3.13
2023-10-29T04:38:50.666Z,2.35
2023-10-29T04:41:18.339Z,2.10
2023-10-29T04:43:45.296Z,2.50
2023-10-29T04:46:12.605Z,2.35
2023-10-29T04:48:39.616Z,2.00
2023-10-29T04:51:09.818Z,2.75
2023-10-29T04:53:37.279Z,3.35
2023-10-29T04:56:04.871Z,3.30
2023-10-29T04:58:33.154Z,2.50
2023-10-29T05:01:00.226Z,2.60
2023-10-29T05:03:29.231Z,2.33
2023-10-29T05:05:56.690Z,3.50
2023-10-29T05:08:23.663Z,3.10
2023-10-29T05:10:50.443Z,2.70
2023-10-29T05:13:17.818Z,2.65
2023-10-29T05:15:44.702Z,2.38
2023-10-29T05:18:11.593Z,2.53
2023-10-29T05:20:39.362Z,2.42
2023-10-29T05:23:06.700Z,3.17
2023-10-29T05:25:33.451Z,3.00
2023-10-29T05:28:00.230Z,2.83
2023-10-29T05:30:27.014Z,2.60
2023-10-29T05:32:54.138Z,2.30
2023-10-29T05:35:22.296Z,2.72
2023-10-29T05:37:49.099Z,2.45
2023-10-29T05:40:16.205Z,2.63
2023-10-29T05:42:43.037Z,2.80
2023-10-29T05:45:10.423Z,2.90
2023-10-29T05:47:37.347Z,2.55
2023-10-29T05:50:07.477Z,5.07
2023-10-29T05:52:34.243Z,4.15
2023-10-29T05:55:04.990Z,4.75
2023-10-29T05:57:31.796Z,5.70
2023-10-29T05:59:58.662Z,3.72
2023-10-29T06:02:25.535Z,4.53
2023-10-29T06:04:52.562Z,6.07
2023-10-29T06:07:19.646Z,5.57
2023-10-29T06:09:46.397Z,4.60
2023-10-29T06:12:13.138Z,3.67
2023-10-29T06:14:40.039Z,4.20
2023-10-29T06:17:19.532Z,4.38
2023-10-29T06:19:52.807Z,4.30
2023-10-29T06:22:19.531Z,3.90
2023-10-29T06:24:46.480Z,3.67
2023-10-29T06:27:13.475Z,3.20
2023-10-29T06:29:40.330Z,2.92
2023-10-29T06:32:07.289Z,3.28
2023-10-29T06:34:34.098Z,3.28
2023-10-29T06:37:00.846Z,2.95
2023-10-29T06:39:27.559Z,3.40
2023-10-29T06:41:54.326Z,3.58
2023-10-29T06:44:21.137Z,3.90
2023-10-29T06:46:47.953Z,3.90
2023-10-29T06:49:14.686Z,4.40
2023-10-29T06:51:41.414Z,5.18
2023-10-29T06:54:08.299Z,5.28
2023-10-29T06:56:35.178Z,5.30
2023-10-29T06:59:01.983Z,5.25
2023-10-29T07:01:28.728Z,5.15
2023-10-29T07:03:55.651Z,5.53
2023-10-29T07:06:22.618Z,5.55
2023-10-29T07:08:49.493Z,5.50
2023-10-29T07:11:16.244Z,6.00
2023-10-29T07:13:43.448Z,5.40
2023-10-29T07:16:10.659Z,8.07
2023-10-29T07:18:37.727Z,12.48
2023-10-29T07:21:06.213Z,8.55
2023-10-29T07:23:33.182Z,8.00
2023-10-29T07:26:00.291Z,8.30
2023-10-29T07:28:29.582Z,7.68
2023-10-29T07:30:59.202Z,7.28
2023-10-29T07:33:26.093Z,7.90
2023-10-29T07:35:53.002Z,7.75
2023-10-29T07:38:19.882Z,7.65
2023-10-29T07:40:46.581Z,12.48
2023-10-29T07:43:13.443Z,5.70
2023-10-29T07:45:40.194Z,7.28
2023-10-29T07:48:07.158Z,10.50
2023-10-29T07:50:33.990Z,6.45
2023-10-29T07:53:00.780Z,3.92
2023-10-29T07:55:27.524Z,6.70
2023-10-29T07:57:54.374Z,4.72
2023-10-29T08:00:21.215Z,4.18
2023-10-29T08:02:48.248Z,3.65
2023-10-29T08:05:16.183Z,3.75
2023-10-29T08:07:42.958Z,5.65
2023-10-29T08:10:10.230Z,5.35
2023-10-29T08:12:36.980Z,5.60
2023-10-29T08:15:04.369Z,5.47
2023-10-29T08:17:31.482Z,4.32
2023-10-29T08:19:59.798Z,4.07
2023-10-29T08:22:27.143Z,4.85
2023-10-29T08:24:54.514Z,7.30
2023-10-29T08:27:21.330Z,4.63
2023-10-29T08:29:49.527Z,5.13
2023-10-29T08:32:16.643Z,4.53
2023-10-29T08:34:43.499Z,4.53
2023-10-29T08:37:11.812Z,5.88
2023-10-29T08:39:38.950Z,5.20
2023-10-29T08:42:06.667Z,4.60
2023-10-29T08:44:33.624Z,4.35
2023-10-29T08:47:01.648Z,3.67
2023-10-29T08:49:28.440Z,2.88
2023-10-29T08:51:55.256Z,3.30
2023-10-29T08:54:24.783Z,3.72
2023-10-29T08:59:33.233Z,3.47
2023-10-29T09:01:59.955Z,3.00
2023-10-29T09:04:27.288Z,2.58
2023-10-29T09:06:54.036Z,2.53
2023-10-29T09:09:20.777Z,3.33
2023-10-29T09:11:51.399Z,2.35
2023-10-29T09:14:18.165Z,1.67
2023-10-29T09:16:48.420Z,1.80
2023-10-29T09:19:16.137Z,1.58
2023-10-29T09:21:43.137Z,1.80
2023-10-29T09:24:09.946Z,2.00
2023-10-29T09:26:42.246Z,1.48
2023-10-29T09:29:11.756Z,1.60
2023-10-29T09:31:38.600Z,2.45
2023-10-29T09:34:05.805Z,2.42
2023-10-29T09:36:32.650Z,2.08
2023-10-29T09:39:01.085Z,2.00
2023-10-29T09:41:27.850Z,1.40
2023-10-29T09:43:54.924Z,2.10
2023-10-29T09:46:25.161Z,2.00
2023-10-29T09:48:53.494Z,1.70
2023-10-29T09:51:21.956Z,2.83
2023-10-29T09:53:51.000Z,1.40
2023-10-29T09:56:20.510Z,1.77
2023-10-29T09:58:47.385Z,1.60
2023-10-29T10:01:15.406Z,1.58
2023-10-29T10:03:47.542Z,3.55
2023-10-29T10:06:20.721Z,3.53
2023-10-29T10:09:24.502Z,1.73
2023-10-29T10:14:33.651Z,2.70
2023-10-29T10:17:13.957Z,2.30
2023-10-29T10:19:41.502Z,1.55
2023-10-29T10:22:08.661Z,1.40
2023-10-29T10:24:40.878Z,1.30
2023-10-29T10:27:08.472Z,1.60
2023-10-29T10:29:35.634Z,1.67
2023-10-29T10:32:07.345Z,2.00
2023-10-29T10:34:35.498Z,1.52
2023-10-29T10:37:03.689Z,1.25
2023-10-29T10:39:34.887Z,1.10
2023-10-29T10:42:03.894Z,1.10
2023-10-29T10:44:31.869Z,1.20
2023-10-29T10:47:00.718Z,0.98
2023-10-29T10:49:31.933Z,0.80
2023-10-29T10:52:02.196Z,1.48
2023-10-29T10:54:30.724Z,1.10
2023-10-29T10:56:57.716Z,1.08
2023-10-29T10:59:24.828Z,0.93
2023-10-29T11:01:51.926Z,0.98
2023-10-29T11:04:20.381Z,2.15
2023-10-29T11:06:48.090Z,1.90
2023-10-29T11:09:16.053Z,2.00
2023-10-29T11:11:50.223Z,1.50
2023-10-29T11:14:18.477Z,1.40
2023-10-29T11:16:50.631Z,1.10
2023-10-29T11:19:45.858Z,1.33
2023-10-29T11:22:32.397Z,1.33
2023-10-29T11:25:12.501Z,1.55
2023-10-29T11:27:47.702Z,1.30
2023-10-29T11:30:19.782Z,1.17
2023-10-29T11:33:11.144Z,1.20
2023-10-29T11:35:38.744Z,0.90
2023-10-29T11:38:38.817Z,1.08
2023-10-29T11:41:37.214Z,1.00
2023-10-29T11:44:19.508Z,1.50
2023-10-29T11:47:04.972Z,1.20
2023-10-29T11:49:57.693Z,1.20
2023-10-29T11:52:29.028Z,0.88
2023-10-29T11:55:03.466Z,1.00
2023-10-29T11:59:57.980Z,1.15
2023-10-29T12:02:26.453Z,1.20
2023-10-29T12:04:53.312Z,1.20
2023-10-29T12:07:27.512Z,0.73
2023-10-29T12:10:03.289Z,0.90
2023-10-29T12:12:30.065Z,0.90
2023-10-29T12:14:56.867Z,0.93
2023-10-29T12:17:23.871Z,0.80
2023-10-29T12:19:50.740Z,0.88
2023-10-29T12:22:22.543Z,0.98
2023-10-29T12:24:59.693Z,1.15
2023-10-29T12:27:26.635Z,0.75
2023-10-29T12:29:53.964Z,0.77
2023-10-29T12:32:23.752Z,1.00
2023-10-29T12:34:51.597Z,1.27
2023-10-29T12:37:21.390Z,1.90
2023-10-29T12:39:49.550Z,1.15
2023-10-29T12:42:16.892Z,1.10
2023-10-29T12:44:54.469Z,1.10
2023-10-29T12:47:22.064Z,1.45
2023-10-29T12:50:00.034Z,1.00
2023-10-29T12:52:29.442Z,0.90
2023-10-29T12:54:57.915Z,1.10
2023-10-29T12:57:25.108Z,0.98
2023-10-29T12:59:52.034Z,1.23
2023-10-29T13:02:29.194Z,1.33
2023-10-29T13:04:55.997Z,1.48
2023-10-29T13:07:23.340Z,1.30
2023-10-29T13:09:52.494Z,0.95
2023-10-29T13:12:19.334Z,0.90
2023-10-29T13:14:47.679Z,1.23
2023-10-29T13:17:17.447Z,1.20
2023-10-29T13:19:44.394Z,1.35
2023-10-29T13:22:11.387Z,1.00
2023-10-29T13:24:38.372Z,0.85
2023-10-29T13:27:08.304Z,1.05
2023-10-29T13:29:37.274Z,1.30
2023-10-29T13:32:05.059Z,0.93
2023-10-29T13:34:31.907Z,1.30
2023-10-29T13:36:58.784Z,1.10
2023-10-29T13:39:25.628Z,1.10
2023-10-29T13:41:52.520Z,1.10
2023-10-29T13:44:19.304Z,1.10
2023-10-29T13:46:46.096Z,1.40
2023-10-29T13:49:12.942Z,1.10
2023-10-29T13:51:40.618Z,0.90
2023-10-29T13:54:09.779Z,0.88
2023-10-29T13:56:36.589Z,0.93
2023-10-29T13:59:03.349Z,0.80
2023-10-29T14:01:30.562Z,5.10
2023-10-29T14:03:58.365Z,2.20
2023-10-29T14:06:25.285Z,1.70
2023-10-29T14:08:52.684Z,1.20
2023-10-29T14:11:20.868Z,1.00
2023-10-29T14:13:51.082Z,1.10
2023-10-29T14:16:17.959Z,0.80
2023-10-29T14:18:45.697Z,0.90
2023-10-29T14:21:12.863Z,0.80
2023-10-29T14:23:39.733Z,1.20
2023-10-29T14:26:06.540Z,1.00
2023-10-29T14:28:33.615Z,0.95
2023-10-29T14:31:01.078Z,1.00
2023-10-29T14:33:28.017Z,1.00
2023-10-29T14:35:58.877Z,1.05
2023-10-29T14:38:27.320Z,1.00
2023-10-29T14:40:55.922Z,1.10
2023-10-29T14:43:23.593Z,0.82
2023-10-29T14:45:52.353Z,1.00
2023-10-29T14:48:20.175Z,0.70
2023-10-29T14:50:48.058Z,0.90
2023-10-29T14:53:14.946Z,1.65
2023-10-29T14:55:48.437Z,0.88
2023-10-29T14:58:16.136Z,1.05
2023-10-29T15:00:44.345Z,0.93
2023-10-29T15:03:11.694Z,0.70
2023-10-29T15:05:38.751Z,1.00
2023-10-29T15:08:05.811Z,1.15
2023-10-29T15:10:32.653Z,1.50
2023-10-29T15:12:59.427Z,1.20
2023-10-29T15:15:30.524Z,1.27
2023-10-29T15:17:58.222Z,1.30
2023-10-29T15:20:27.454Z,1.25
2023-10-29T15:22:54.769Z,0.90
2023-10-29T15:25:21.614Z,1.40
2023-10-29T15:27:48.393Z,1.15
2023-10-29T15:30:15.342Z,1.40
2023-10-29T15:32:42.137Z,6.30
2023-10-29T15:35:09.420Z,3.95
2023-10-29T15:37:36.418Z,1.65
2023-10-29T15:40:03.890Z,1.70
2023-10-29T15:42:30.721Z,1.90
2023-10-29T15:44:57.508Z,2.55
2023-10-29T15:47:26.299Z,3.00
2023-10-29T15:49:53.720Z,2.80
2023-10-29T15:52:21.150Z,3.42
2023-10-29T15:54:48.795Z,2.45
2023-10-29T15:57:16.034Z,3.10
2023-10-29T15:59:43.399Z,2.60
2023-10-29T16:02:10.251Z,2.53
2023-10-29T16:04:38.657Z,2.10
2023-10-29T16:07:06.274Z,1.77
2023-10-29T16:09:33.721Z,3.70
2023-10-29T16:12:08.824Z,4.30
2023-10-29T16:14:36.813Z,4.68
2023-10-29T16:17:04.532Z,5.65
2023-10-29T16:19:31.767Z,4.30
2023-10-29T16:21:58.808Z,3.38
2023-10-29T16:24:28.075Z,3.47
2023-10-29T16:26:55.163Z,2.83
2023-10-29T16:29:22.044Z,2.90
2023-10-29T16:31:48.851Z,2.42
2023-10-29T16:34:15.791Z,2.55
2023-10-29T16:36:42.635Z,2.75
2023-10-29T16:39:09.478Z,2.50
2023-10-29T16:41:36.267Z,2.50
2023-10-29T16:44:04.029Z,2.50
2023-10-29T16:46:33.622Z,2.45
2023-10-29T16:49:02.553Z,2.47
2023-10-29T16:51:29.698Z,2.40
2023-10-29T16:53:56.617Z,2.40
2023-10-29T16:56:23.650Z,2.55
2023-10-29T16:58:50.626Z,2.53
2023-10-29T17:01:18.959Z,2.70
2023-10-29T17:03:47.182Z,2.33
2023-10-29T17:06:15.825Z,2.28
2023-10-29T17:08:42.973Z,2.38
2023-10-29T17:11:10.987Z,3.28
2023-10-29T17:13:37.810Z,3.40
2023-10-29T17:16:05.535Z,2.78
2023-10-29T17:18:33.264Z,3.05
2023-10-29T17:21:01.082Z,3.80
2023-10-29T17:23:28.411Z,4.68
2023-10-29T17:25:56.201Z,3.78
2023-10-29T17:28:23.153Z,4.28
2023-10-29T17:30:49.978Z,3.63
2023-10-29T17:33:17.271Z,4.40
2023-10-29T17:35:44.301Z,4.75
2023-10-29T17:38:11.066Z,4.40
2023-10-29T17:40:37.962Z,4.50
2023-10-29T17:43:05.054Z,4.85
2023-10-29T17:45:44.128Z,4.80
2023-10-29T17:48:11.448Z,4.82
2023-10-29T17:50:38.411Z,5.60
2023-10-29T17:53:05.441Z,5.60
2023-10-29T17:55:32.285Z,5.35
2023-10-29T17:58:01.025Z,4.90
2023-10-29T18:00:28.060Z,5.10
2023-10-29T18:02:55.280Z,6.25
2023-10-29T18:05:22.802Z,4.93
2023-10-29T18:07:50.549Z,5.00
2023-10-29T18:10:17.385Z,5.75
2023-10-29T18:12:44.489Z,5.40
2023-10-29T18:15:11.334Z,5.50
2023-10-29T18:17:38.295Z,5.75
2023-10-29T18:20:05.998Z,6.50
2023-10-29T18:22:32.884Z,6.03
2023-10-29T18:25:00.367Z,6.10
2023-10-29T18:27:27.342Z,5.63
2023-10-29T18:29:54.249Z,5.70
2023-10-29T18:32:22.422Z,6.25
2023-10-29T18:34:49.473Z,6.78
2023-10-29T18:37:16.499Z,7.30
2023-10-29T18:39:43.386Z,6.75
2023-10-29T18:42:10.617Z,5.85
2023-10-29T18:44:37.453Z,6.50
2023-10-29T18:47:05.083Z,7.60
2023-10-29T18:49:31.942Z,7.18
2023-10-29T18:51:58.751Z,7.00
2023-10-29T18:54:25.898Z,8.20
2023-10-29T18:56:53.809Z,8.00
2023-10-29T18:59:22.931Z,8.85
2023-10-29T19:01:49.974Z,8.63
2023-10-29T19:04:17.588Z,9.10
2023-10-29T19:06:44.742Z,10.80
2023-10-29T19:09:12.212Z,10.15
2023-10-29T19:11:39.426Z,8.77
2023-10-29T19:14:08.518Z,8.18
2023-10-29T19:16:35.753Z,8.05
2023-10-29T19:19:02.989Z,7.72
2023-10-29T19:21:30.071Z,7.35
2023-10-29T19:23:57.321Z,7.25
2023-10-29T19:26:24.370Z,8.50
2023-10-29T19:28:51.551Z,8.07
2023-10-29T19:31:25.394Z,7.85
2023-10-29T19:33:55.189Z,9.68
2023-10-29T19:36:22.523Z,9.07
2023-10-29T19:38:49.542Z,9.70
2023-10-29T19:41:16.520Z,9.88
2023-10-29T19:43:43.372Z,9.77
2023-10-29T19:46:11.298Z,9.27
2023-10-29T19:48:38.602Z,8.18
2023-10-29T19:51:09.317Z,7.25
2023-10-29T19:53:37.100Z,6.95
2023-10-29T19:56:09.137Z,7.25
2023-10-29T19:58:36.141Z,7.45
2023-10-29T20:01:10.921Z,7.18
2023-10-29T20:03:40.284Z,6.68
2023-10-29T20:06:12.283Z,7.15
2023-10-29T20:08:40.630Z,7.70
2023-10-29T20:11:15.053Z,7.05
2023-10-29T20:16:11.157Z,6.10
2023-10-29T20:18:38.852Z,4.38
2023-10-29T20:21:19.205Z,3.20
2023-10-29T20:23:47.727Z,4.13
2023-10-29T20:26:19.542Z,4.82
2023-10-29T20:28:49.608Z,4.28
2023-10-29T20:31:17.175Z,4.05
2023-10-29T20:33:45.443Z,4.20
2023-10-29T20:36:13.856Z,3.72
2023-10-29T20:38:40.988Z,3.70
2023-10-29T20:41:10.482Z,3.45
2023-10-29T20:43:40.058Z,6.15
2023-10-29T20:46:09.911Z,4.78
2023-10-29T20:48:37.599Z,5.72
2023-10-29T20:51:04.873Z,4.18
2023-10-29T20:53:31.821Z,3.40
2023-10-29T20:56:03.901Z,6.20
2023-10-29T20:58:30.724Z,5.47
2023-10-29T21:00:57.648Z,5.78
2023-10-29T21:03:24.657Z,5.60
2023-10-29T21:05:59.534Z,3.97
2023-10-29T21:08:27.094Z,4.32
2023-10-29T21:11:05.895Z,8.38
2023-10-29T21:13:33.126Z,6.32
2023-10-29T21:16:06.465Z,4.72
2023-10-29T21:18:34.352Z,5.70
2023-10-29T21:21:03.447Z,7.63
2023-10-29T21:23:30.734Z,4.28
2023-10-29T21:26:02.708Z,3.60
2023-10-29T21:28:29.865Z,5.80
2023-10-29T21:30:57.111Z,3.20
2023-10-29T21:33:24.202Z,2.65
2023-10-29T21:35:51.897Z,2.85
2023-10-29T21:38:18.984Z,3.60
2023-10-29T21:40:46.163Z,3.78
2023-10-29T21:43:13.433Z,3.35
2023-10-29T21:45:44.353Z,3.72
2023-10-29T21:48:11.592Z,4.03
2023-10-29T21:50:41.909Z,3.92
2023-10-29T21:53:09.280Z,4.20
2023-10-29T21:55:39.245Z,3.58
2023-10-29T21:58:14.533Z,3.67
2023-10-29T22:00:41.594Z,3.75
2023-10-29T22:03:08.779Z,3.60
2023-10-29T22:05:41.427Z,3.70
2023-10-29T22:08:08.792Z,4.40
2023-10-29T22:10:35.681Z,3.60
2023-10-29T22:13:02.544Z,3.45
2023-10-29T22:15:29.666Z,3.40
2023-10-29T22:17:56.923Z,3.28
2023-10-29T22:20:23.969Z,4.05
2023-10-29T22:22:50.944Z,3.95
2023-10-29T22:25:17.897Z,4.20
2023-10-29T22:27:44.701Z,4.38
2023-10-29T22:30:12.271Z,4.03
2023-10-29T22:32:41.816Z,3.30
2023-10-29T22:35:08.901Z,3.20
2023-10-29T22:37:38.974Z,3.10
2023-10-29T22:40:06.436Z,3.30
2023-10-29T22:42:33.842Z,3.25
2023-10-29T22:45:00.813Z,3.42
2023-10-29T22:47:27.821Z,3.65
2023-10-29T22:49:54.800Z,3.33
2023-10-29T22:52:22.630Z,3.33
2023-10-29T22:54:50.052Z,3.22
2023-10-29T22:57:17.588Z,3.10
2023-10-29T22:59:44.583Z,3.30
2023-10-29T23:02:11.560Z,3.60
2023-10-29T23:04:38.646Z,3.40
2023-10-29T23:07:06.005Z,3.60
2023-10-29T23:09:33.814Z,4.35
2023-10-29T23:12:00.653Z,3.47
2023-10-29T23:14:31.370Z,3.33
2023-10-29T23:16:58.176Z,3.90
2023-10-29T23:19:25.034Z,4.18
2023-10-29T23:21:51.880Z,4.60
2023-10-29T23:24:18.702Z,3.92
2023-10-29T23:26:45.726Z,4.10
2023-10-29T23:29:12.564Z,3.97
2023-10-29T23:31:39.502Z,4.40
2023-10-29T23:34:06.877Z,3.60
2023-10-29T23:36:34.024Z,3.95
2023-10-29T23:39:00.829Z,3.92
2023-10-29T23:41:27.770Z,4.22
2023-10-29T23:43:55.317Z,4.00
2023-10-29T23:46:22.391Z,3.80
2023-10-29T23:48:49.350Z,2.95
2023-10-29T23:51:16.322Z,3.40
2023-10-29T23:53:44.186Z,3.72
2023-10-29T23:56:11.194Z,3.65
2023-10-29T23:58:38.490Z,3.33
